createdAt,value
2019-04-20T00:02:38.381Z,99958.41
2019-04-20T00:05:53.084Z,99952.33
2019-04-20T00:09:14.028Z,99952.24
2019-04-20T00:12:36.550Z,99952.22
2019-04-20T00:15:38.986Z,99945.66
2019-04-20T00:18:56.569Z,99947.98
2019-04-20T00:22:24.608Z,99952.73
2019-04-20T00:26:07.723Z,99945.42
2019-04-20T00:29:30.885Z,99953.48
2019-04-20T00:32:41.255Z,99952.29
2019-04-20T00:35:44.321Z,99957.59
2019-04-20T00:39:18.853Z,99950.19
2019-04-20T00:42:40.737Z,99950.81
2019-04-20T00:45:58.025Z,99948.34
2019-04-20T00:49:20.621Z,99957.14
2019-04-20T00:52:35.674Z,99950.96
2019-04-20T00:55:36.096Z,99945.80
2019-04-20T00:59:02.698Z,99953.16
2019-04-20T01:02:20.887Z,99944.41
2019-04-20T01:05:47.847Z,99942.94
2019-04-20T01:09:16.036Z,99947.41
2019-04-20T01:12:32.995Z,99943.58
2019-04-20T01:15:51.571Z,99943.79
2019-04-20T01:19:01.389Z,99944.93
2019-04-20T01:22:18.461Z,99941.98
2019-04-20T01:25:35.990Z,99951.81
2019-04-20T01:28:58.865Z,99946.58
2019-04-20T01:32:14.210Z,99947.84
2019-04-20T01:35:38.196Z,99952.20
2019-04-20T01:38:49.865Z,99952.82
2019-04-20T01:41:49.581Z,99953.91
2019-04-20T01:45:11.254Z,99955.25
2019-04-20T01:48:26.760Z,99952.23
2019-04-20T01:51:49.146Z,99953.45
2019-04-20T01:55:24.441Z,99952.06
2019-04-20T01:59:04.683Z,99957.34
2019-04-20T02:02:28.320Z,99955.75
2019-04-20T02:05:53.092Z,99959.20
2019-04-20T02:09:04.663Z,99962.55
2019-04-20T02:12:21.664Z,99970.34
2019-04-20T02:15:55.622Z,99964.20
2019-04-20T02:19:21.901Z,99962.87
2019-04-20T02:22:37.107Z,99974.77
2019-04-20T02:25:37.591Z,99972.77
2019-04-20T02:29:18.987Z,99963.86
2019-04-20T02:36:27.512Z,99971.92
2019-04-20T02:39:45.938Z,99971.55
2019-04-20T02:52:42.544Z,99969.45
2019-04-20T02:55:53.434Z,99966.90
2019-04-20T02:59:29.631Z,99965.47
2019-04-20T03:02:06.390Z,99965.63
2019-04-20T03:05:16.473Z,99962.89
2019-04-20T03:08:42.294Z,99970.16
2019-04-20T03:15:09.701Z,99976.52
2019-04-20T03:18:25.547Z,99967.42
2019-04-20T03:21:45.368Z,99963.37
2019-04-20T03:25:06.878Z,99966.83
2019-04-20T03:28:19.474Z,99958.58
2019-04-20T03:31:54.152Z,99962.63
2019-04-20T03:38:04.643Z,99964.13
2019-04-20T03:41:16.213Z,99965.03
2019-04-20T03:44:20.975Z,99966.15
2019-04-20T03:47:43.764Z,99968.17
2019-04-20T03:51:07.055Z,99966.56
2019-04-20T03:54:51.333Z,99973.30
2019-04-20T03:58:19.692Z,99975.34
2019-04-20T04:02:07.506Z,99975.34
2019-04-20T04:05:19.322Z,99965.53
2019-04-20T04:08:25.406Z,99968.41
2019-04-20T04:11:50.273Z,99965.19
2019-04-20T04:14:49.371Z,99977.59
2019-04-20T04:18:11.037Z,99977.19
2019-04-20T04:21:35.533Z,99976.45
2019-04-20T04:24:53.164Z,99969.38
2019-04-20T04:28:06.986Z,99978.28
2019-04-20T04:31:27.562Z,99980.08
2019-04-20T04:34:41.614Z,99977.56
2019-04-20T04:37:58.846Z,99978.13
2019-04-20T04:41:18.274Z,99981.38
2019-04-20T04:44:19.261Z,99981.96
2019-04-20T04:47:24.025Z,99985.80
2019-04-20T04:50:47.499Z,99981.59
2019-04-20T04:54:01.176Z,99987.61
2019-04-20T04:57:09.480Z,99994.11
2019-04-20T05:00:28.141Z,99995.20
2019-04-20T05:04:02.879Z,99995.58
2019-04-20T05:07:09.365Z,99996.65
2019-04-20T05:10:11.905Z,99999.04
2019-04-20T05:16:55.296Z,100004.61
2019-04-20T05:20:08.559Z,100008.08
2019-04-20T05:23:35.124Z,100005.36
2019-04-20T05:27:08.090Z,100010.96
2019-04-20T05:30:03.661Z,100014.03
2019-04-20T05:33:28.161Z,100005.31
2019-04-20T05:36:49.350Z,100009.79
2019-04-20T05:40:10.719Z,100005.41
2019-04-20T05:43:30.610Z,100008.63
2019-04-20T05:46:48.193Z,100005.82
2019-04-20T05:49:58.739Z,100005.44
2019-04-20T05:53:19.242Z,100005.21
2019-04-20T05:56:35.794Z,100005.91
2019-04-20T05:59:56.039Z,100007.03
2019-04-20T06:03:06.028Z,100011.35
2019-04-20T06:06:22.035Z,100016.86
2019-04-20T06:09:40.008Z,100014.80
2019-04-20T06:12:54.165Z,100019.41
2019-04-20T06:16:08.905Z,100018.19
2019-04-20T06:19:32.006Z,100022.03
2019-04-20T06:22:48.556Z,100017.55
2019-04-20T06:26:24.589Z,100008.56
2019-04-20T06:29:16.453Z,100010.72
2019-04-20T06:33:21.930Z,100006.48
2019-04-20T06:36:33.845Z,100006.31
2019-04-20T06:39:58.958Z,100004.28
2019-04-20T06:43:05.198Z,100006.31
2019-04-20T06:46:22.744Z,100013.40
2019-04-20T06:49:33.328Z,100012.57
2019-04-20T06:53:18.719Z,100006.92
2019-04-20T06:56:31.128Z,100008.05
2019-04-20T06:59:47.699Z,100007.97
2019-04-20T07:02:58.993Z,100004.01
2019-04-20T07:06:34.109Z,99994.13
2019-04-20T07:09:49.073Z,99996.36
2019-04-20T07:12:45.464Z,99991.70
2019-04-20T07:16:21.381Z,99985.54
2019-04-20T07:19:40.196Z,99991.31
2019-04-20T07:23:11.118Z,99988.11
2019-04-20T07:26:25.044Z,99990.78
2019-04-20T07:29:51.938Z,99988.59
2019-04-20T07:32:52.160Z,99998.34
2019-04-20T07:36:05.802Z,99995.72
2019-04-20T07:39:26.606Z,99995.67
2019-04-20T07:42:40.750Z,99994.30
2019-04-20T07:45:51.725Z,99987.08
2019-04-20T07:49:07.342Z,99996.16
2019-04-20T07:52:01.895Z,99984.75
2019-04-20T07:58:41.405Z,99985.83
2019-04-20T08:02:29.078Z,99988.39
2019-04-20T08:05:36.371Z,99986.19
2019-04-20T08:08:53.098Z,99979.70
2019-04-20T08:12:28.831Z,99979.17
2019-04-20T08:15:43.381Z,99974.83
2019-04-20T08:18:55.748Z,99975.63
2019-04-20T08:22:08.329Z,99976.53
2019-04-20T08:25:14.128Z,99970.83
2019-04-20T08:28:42.366Z,99965.88
2019-04-20T08:32:17.868Z,99960.98
2019-04-20T08:35:39.285Z,99960.11
2019-04-20T08:39:16.585Z,99965.43
2019-04-20T08:42:06.273Z,99956.58
2019-04-20T08:45:24.168Z,99957.68
2019-04-20T08:48:40.626Z,99956.66
2019-04-20T08:52:01.722Z,99956.29
2019-04-20T08:55:05.483Z,99958.71
2019-04-20T08:58:04.491Z,99954.94
2019-04-20T09:01:21.564Z,99951.48
2019-04-20T09:04:43.250Z,99947.08
2019-04-20T09:08:04.370Z,99950.63
2019-04-20T09:11:23.250Z,99950.09
2019-04-20T09:14:21.723Z,99942.23
2019-04-20T09:18:01.932Z,99941.71
2019-04-20T09:21:24.896Z,99931.00
2019-04-20T09:24:51.474Z,99925.87
2019-04-20T09:28:11.669Z,99927.22
2019-04-20T09:31:39.241Z,99928.95
2019-04-20T09:34:59.966Z,99924.55
2019-04-20T09:38:12.200Z,99921.77
2019-04-20T09:41:45.263Z,99915.34
2019-04-20T09:44:31.499Z,99919.63
2019-04-20T09:47:49.388Z,99906.53
2019-04-20T09:51:20.067Z,99913.91
2019-04-20T09:54:40.474Z,99908.52
2019-04-20T09:57:50.295Z,99899.51
2019-04-20T10:01:03.225Z,99900.64
2019-04-20T10:04:03.441Z,99893.52
2019-04-20T10:07:19.995Z,99891.39
2019-04-20T10:10:38.909Z,99891.28
2019-04-20T10:13:48.273Z,99893.87
2019-04-20T10:17:02.236Z,99887.12
2019-04-20T10:20:24.402Z,99882.78
2019-04-20T10:23:32.477Z,99883.16
2019-04-20T10:26:46.234Z,99883.95
2019-04-20T10:30:02.920Z,99878.39
2019-04-20T10:33:15.545Z,99879.47
2019-04-20T10:37:04.172Z,99881.48
2019-04-20T10:40:35.838Z,99872.05
2019-04-20T10:43:33.455Z,99870.03
2019-04-20T10:46:47.099Z,99870.89
2019-04-20T10:50:00.904Z,99865.39
2019-04-20T10:53:14.823Z,99861.63
2019-04-20T10:56:29.516Z,99866.51
2019-04-20T10:59:43.724Z,99869.39
2019-04-20T11:02:57.540Z,99873.41
2019-04-20T11:06:11.135Z,99872.28
2019-04-20T11:09:24.879Z,99862.67
2019-04-20T11:12:40.083Z,99864.08
2019-04-20T11:15:54.718Z,99858.57
2019-04-20T11:19:09.425Z,99853.74
2019-04-20T11:22:24.142Z,99852.11
2019-04-20T11:25:38.464Z,99852.11
2019-04-20T11:28:52.489Z,99855.80
2019-04-20T11:32:07.287Z,99843.52
2019-04-20T11:35:28.058Z,99836.27
2019-04-20T11:38:36.480Z,99821.11
2019-04-20T11:41:51.686Z,99831.59
2019-04-20T11:45:06.721Z,99829.39
2019-04-20T11:48:21.310Z,99813.95
2019-04-20T11:51:35.234Z,99819.66
2019-04-20T11:54:48.831Z,99811.53
2019-04-20T11:58:03.708Z,99825.67
2019-04-20T12:01:51.886Z,99809.16
2019-04-20T12:05:17.365Z,99806.86
2019-04-20T12:08:22.844Z,99808.07
2019-04-20T12:11:47.540Z,99808.91
2019-04-20T12:16:31.997Z,99796.38
2019-04-20T12:19:45.989Z,99777.73
2019-04-20T12:23:00.226Z,99783.44
2019-04-20T12:26:14.828Z,99779.64
2019-04-20T12:29:29.951Z,99783.02
2019-04-20T12:32:48.948Z,99768.56
2019-04-20T12:36:00.391Z,99771.11
2019-04-20T12:39:15.091Z,99774.70
2019-04-20T12:42:29.028Z,99776.06
2019-04-20T12:45:44.038Z,99768.52
2019-04-20T12:48:57.759Z,99761.47
2019-04-20T12:52:12.449Z,99761.34
2019-04-20T12:55:26.414Z,99771.22
2019-04-20T12:58:43.303Z,99764.37
2019-04-20T13:01:55.906Z,99760.33
2019-04-20T13:05:11.169Z,99764.27
2019-04-20T13:08:30.341Z,99745.55
2019-04-20T13:12:09.896Z,99753.08
2019-04-20T13:15:28.858Z,99755.84
2019-04-20T13:18:57.732Z,99745.55
2019-04-20T13:22:12.823Z,99735.59
2019-04-20T13:25:26.539Z,99727.39
2019-04-20T13:28:41.255Z,99729.65
2019-04-20T13:31:56.647Z,99721.83
2019-04-20T13:35:12.084Z,99708.30
2019-04-20T13:38:25.911Z,99711.95
2019-04-20T13:41:40.351Z,99711.91
2019-04-20T13:44:54.920Z,99713.09
2019-04-20T13:48:08.958Z,99703.04
2019-04-20T13:51:23.013Z,99699.98
2019-04-20T13:54:37.898Z,99696.05
2019-04-20T13:57:59.756Z,99687.06
2019-04-20T14:01:34.504Z,99690.78
2019-04-20T14:04:52.797Z,99691.64
2019-04-20T14:08:07.763Z,99690.59
2019-04-20T14:11:21.463Z,99690.04
2019-04-20T14:14:35.480Z,99691.33
2019-04-20T14:17:49.498Z,99682.92
2019-04-20T14:21:03.238Z,99686.85
2019-04-20T14:24:17.157Z,99685.56
2019-04-20T14:27:30.907Z,99674.67
2019-04-20T14:30:45.948Z,99676.75
2019-04-20T14:33:59.809Z,99670.66
2019-04-20T14:37:14.949Z,99667.63
2019-04-20T14:40:30.339Z,99658.87
2019-04-20T14:43:44.747Z,99656.63
2019-04-20T14:46:58.270Z,99656.88
2019-04-20T14:50:13.646Z,99646.86
2019-04-20T14:53:27.454Z,99639.95
2019-04-20T14:56:41.555Z,99634.09
2019-04-20T14:59:59.210Z,99640.88
2019-04-20T15:03:28.601Z,99635.89
2019-04-20T15:06:42.614Z,99625.88
2019-04-20T15:09:57.124Z,99625.12
2019-04-20T15:13:11.346Z,99620.89
2019-04-20T15:16:26.586Z,99622.38
2019-04-20T15:20:05.658Z,99621.88
2019-04-20T15:23:23.512Z,99611.81
2019-04-20T15:26:38.495Z,99615.34
2019-04-20T15:29:52.375Z,99609.21
2019-04-20T15:33:07.253Z,99601.88
2019-04-20T15:36:22.210Z,99596.92
2019-04-20T15:39:37.016Z,99592.81
2019-04-20T15:42:59.013Z,99595.50
2019-04-20T15:46:07.586Z,99589.88
2019-04-20T15:49:22.118Z,99584.48
2019-04-20T15:52:40.998Z,99590.72
2019-04-20T15:55:52.388Z,99596.02
2019-04-20T15:59:06.447Z,99596.47
2019-04-20T16:02:35.709Z,99582.22
2019-04-20T16:05:53.454Z,99582.22
2019-04-20T16:09:08.343Z,99576.89
2019-04-20T16:12:22.936Z,99574.64
2019-04-20T16:15:37.883Z,99559.23
2019-04-20T16:18:52.788Z,99559.23
2019-04-20T16:22:07.886Z,99565.17
2019-04-20T16:25:35.235Z,99571.71
2019-04-20T16:28:50.147Z,99571.71
2019-04-20T16:32:04.734Z,99564.80
2019-04-20T16:35:20.290Z,99573.22
2019-04-20T16:38:35.094Z,99573.22
2019-04-20T16:41:50.460Z,99563.08
2019-04-20T16:45:07.348Z,99555.50
2019-04-20T16:48:22.099Z,99544.23
2019-04-20T16:51:36.652Z,99545.38
2019-04-20T16:54:50.650Z,99545.38
2019-04-20T16:58:04.269Z,99547.30
2019-04-20T17:01:19.291Z,99549.23
2019-04-20T17:04:33.847Z,99540.03
2019-04-20T17:07:49.091Z,99539.44
2019-04-20T17:11:03.498Z,99539.44
2019-04-20T17:14:17.477Z,99536.92
2019-04-20T17:17:33.625Z,99532.55
2019-04-20T17:20:48.380Z,99529.83
2019-04-20T17:24:02.097Z,99530.40
2019-04-20T17:27:48.982Z,99529.99
2019-04-20T17:31:27.082Z,99538.00
2019-04-20T17:34:58.372Z,99534.08
2019-04-20T17:37:56.581Z,99527.48
2019-04-20T17:41:30.840Z,99535.28
2019-04-20T17:44:41.375Z,99537.09
2019-04-20T17:47:58.483Z,99541.56
2019-04-20T17:51:18.940Z,99538.83
2019-04-20T17:54:35.891Z,99547.44
2019-04-20T17:57:49.644Z,99547.58
2019-04-20T18:01:51.206Z,99557.49
2019-04-20T18:05:33.938Z,99556.62
2019-04-20T18:08:43.923Z,99553.63
2019-04-20T18:11:47.208Z,99560.21
2019-04-20T18:15:18.261Z,99557.66
2019-04-20T18:18:45.077Z,99562.26
2019-04-20T18:21:53.818Z,99562.59
2019-04-20T18:25:30.078Z,99567.30
2019-04-20T18:28:47.131Z,99571.32
2019-04-20T18:31:47.494Z,99572.76
2019-04-20T18:35:08.486Z,99574.67
2019-04-20T18:38:24.074Z,99574.48
2019-04-20T18:41:46.678Z,99576.39
2019-04-20T18:45:12.474Z,99574.20
2019-04-20T18:48:33.420Z,99573.64
2019-04-20T18:51:26.049Z,99578.03
2019-04-20T18:54:44.290Z,99583.33
2019-04-20T18:57:57.213Z,99581.84
2019-04-20T19:01:11.028Z,99588.91
2019-04-20T19:04:25.826Z,99589.39
2019-04-20T19:07:47.717Z,99596.81
2019-04-20T19:11:03.260Z,99596.19
2019-04-20T19:14:35.635Z,99592.06
2019-04-20T19:18:06.290Z,99592.83
2019-04-20T19:21:11.060Z,99591.93
2019-04-20T19:24:29.169Z,99604.18
2019-04-20T19:27:48.449Z,99606.88
2019-04-20T19:31:10.453Z,99611.34
2019-04-20T19:34:26.485Z,99608.91
2019-04-20T19:37:34.580Z,99603.45
2019-04-20T19:40:51.171Z,99605.78
2019-04-20T19:44:09.984Z,99608.81
2019-04-20T19:47:34.852Z,99613.33
2019-04-20T19:50:57.817Z,99612.44
2019-04-20T19:54:09.248Z,99612.87
2019-04-20T19:57:16.375Z,99612.64
2019-04-20T20:00:24.985Z,99624.16
2019-04-20T20:03:39.570Z,99627.98
2019-04-20T20:06:59.808Z,99621.56
2019-04-20T20:10:10.896Z,99622.73
2019-04-20T20:13:32.096Z,99622.39
2019-04-20T20:17:01.474Z,99622.92
2019-04-20T20:20:20.238Z,99623.47
2019-04-20T20:23:12.070Z,99628.03
2019-04-20T20:26:33.493Z,99624.44
2019-04-20T20:29:54.582Z,99618.77
2019-04-20T20:33:11.614Z,99626.72
2019-04-20T20:36:19.675Z,99624.65
2019-04-20T20:39:31.723Z,99626.68
2019-04-20T20:42:56.301Z,99628.45
2019-04-20T20:46:10.562Z,99626.36
2019-04-20T20:49:32.768Z,99633.89
2019-04-20T20:52:46.900Z,99639.59
2019-04-20T20:55:53.317Z,99641.34
2019-04-20T20:59:11.481Z,99641.75
2019-04-20T21:02:23.673Z,99641.64
2019-04-20T21:05:33.560Z,99636.50
2019-04-20T21:08:52.369Z,99634.50
2019-04-20T21:12:08.555Z,99638.16
2019-04-20T21:16:46.841Z,99639.98
2019-04-20T21:20:03.738Z,99642.85
2019-04-20T21:23:22.383Z,99643.09
2019-04-20T21:26:30.427Z,99639.42
2019-04-20T21:29:44.444Z,99641.80
2019-04-20T21:32:59.994Z,99640.80
2019-04-20T21:36:13.563Z,99635.87
2019-04-20T21:39:35.042Z,99641.94
2019-04-20T21:42:48.175Z,99638.02
2019-04-20T21:46:02.857Z,99633.52
2019-04-20T21:49:26.296Z,99636.42
2019-04-20T21:52:36.117Z,99638.44
2019-04-20T21:55:43.836Z,99641.34
2019-04-20T21:59:02.480Z,99637.54
2019-04-20T22:02:19.453Z,99638.55
2019-04-20T22:05:30.332Z,99636.56
2019-04-20T22:08:51.126Z,99637.08
2019-04-20T22:12:00.237Z,99638.36
2019-04-20T22:15:22.455Z,99631.67
2019-04-20T22:18:31.878Z,99635.59
2019-04-20T22:21:58.417Z,99634.11
2019-04-20T22:25:16.145Z,99633.40
2019-04-20T22:28:18.093Z,99631.84
2019-04-20T22:31:31.959Z,99629.53
2019-04-20T22:34:54.052Z,99634.60
2019-04-20T22:38:20.955Z,99627.88
2019-04-20T22:41:38.727Z,99632.72
2019-04-20T22:44:58.738Z,99623.81
2019-04-20T22:48:10.997Z,99620.74
2019-04-20T22:51:40.226Z,99612.39
2019-04-20T22:54:55.135Z,99612.85
2019-04-20T22:58:04.602Z,99611.95
2019-04-20T23:01:23.259Z,99612.41
2019-04-20T23:04:26.656Z,99613.81
2019-04-20T23:07:41.013Z,99615.70
2019-04-20T23:10:55.638Z,99622.95
2019-04-20T23:14:10.694Z,99615.56
2019-04-20T23:17:33.533Z,99620.45
2019-04-20T23:20:41.141Z,99610.60
2019-04-20T23:24:02.678Z,99615.60
2019-04-20T23:27:17.030Z,99611.77
2019-04-20T23:30:33.497Z,99607.00
2019-04-20T23:33:41.916Z,99605.84
2019-04-20T23:36:56.755Z,99603.77
2019-04-20T23:40:13.207Z,99593.15
2019-04-20T23:43:33.332Z,99592.03
2019-04-20T23:47:03.161Z,99583.02
2019-04-20T23:50:30.526Z,99591.73
2019-04-20T23:53:41.305Z,99590.83
2019-04-20T23:56:43.765Z,99590.21
2019-04-20T23:59:58.166Z,99593.45
